sensor_id;sensor_type;location;lat;lon;timestamp;temperature;humidity
14924;DHT22;7554;43.600;1.480;2024-01-30T00:00:54;11.10;1.00
14924;DHT22;7554;43.600;1.480;2024-01-30T00:03:23;11.10;1.00
14924;DHT22;7554;43.600;1.480;2024-01-30T00:05:50;11.10;1.00
14924;DHT22;7554;43.600;1.480;2024-01-30T00:08:17;11.00;1.00
14924;DHT22;7554;43.600;1.480;2024-01-30T00:10:45;11.10;1.00
14924;DHT22;7554;43.600;1.480;2024-01-30T00:13:12;11.00;1.00
14924;DHT22;7554;43.600;1.480;2024-01-30T00:15:42;11.00;1.00
14924;DHT22;7554;43.600;1.480;2024-01-30T00:18:09;11.00;1.00
14924;DHT22;7554;43.600;1.480;2024-01-30T00:20:38;11.00;1.00
14924;DHT22;7554;43.600;1.480;2024-01-30T00:23:05;11.00;1.00
14924;DHT22;7554;43.600;1.480;2024-01-30T00:25:33;10.90;1.00
14924;DHT22;7554;43.600;1.480;2024-01-30T00:28:00;10.90;1.00
14924;DHT22;7554;43.600;1.480;2024-01-30T00:30:28;11.00;1.00
14924;DHT22;7554;43.600;1.480;2024-01-30T00:32:55;10.90;1.00
14924;DHT22;7554;43.600;1.480;2024-01-30T00:35:22;10.90;1.00
14924;DHT22;7554;43.600;1.480;2024-01-30T00:37:51;10.80;1.00
14924;DHT22;7554;43.600;1.480;2024-01-30T00:40:18;10.80;1.00
14924;DHT22;7554;43.600;1.480;2024-01-30T00:42:46;10.80;1.00
14924;DHT22;7554;43.600;1.480;2024-01-30T00:45:15;10.80;1.30
14924;DHT22;7554;43.600;1.480;2024-01-30T00:47:43;10.80;1.00
14924;DHT22;7554;43.600;1.480;2024-01-30T00:50:10;10.70;2.10
14924;DHT22;7554;43.600;1.480;2024-01-30T00:52:38;10.80;3.00
14924;DHT22;7554;43.600;1.480;2024-01-30T00:55:08;10.70;3.20
14924;DHT22;7554;43.600;1.480;2024-01-30T00:57:35;10.90;2.30
14924;DHT22;7554;43.600;1.480;2024-01-30T01:00:03;10.90;2.20
14924;DHT22;7554;43.600;1.480;2024-01-30T01:02:32;10.80;1.70
14924;DHT22;7554;43.600;1.480;2024-01-30T01:04:59;10.80;1.20
14924;DHT22;7554;43.600;1.480;2024-01-30T01:07:27;10.70;3.00
14924;DHT22;7554;43.600;1.480;2024-01-30T01:09:54;10.80;1.10
14924;DHT22;7554;43.600;1.480;2024-01-30T01:12:23;10.70;4.20
14924;DHT22;7554;43.600;1.480;2024-01-30T01:14:50;10.70;4.80
14924;DHT22;7554;43.600;1.480;2024-01-30T01:17:17;10.60;4.50
14924;DHT22;7554;43.600;1.480;2024-01-30T01:19:45;10.70;3.70
14924;DHT22;7554;43.600;1.480;2024-01-30T01:22:12;10.80;3.60
14924;DHT22;7554;43.600;1.480;2024-01-30T01:24:39;10.70;3.40
14924;DHT22;7554;43.600;1.480;2024-01-30T01:27:07;10.70;4.00
14924;DHT22;7554;43.600;1.480;2024-01-30T01:29:35;10.80;4.50
14924;DHT22;7554;43.600;1.480;2024-01-30T01:32:03;10.70;4.20
14924;DHT22;7554;43.600;1.480;2024-01-30T01:34:30;10.80;4.40
14924;DHT22;7554;43.600;1.480;2024-01-30T01:36:57;10.80;4.20
14924;DHT22;7554;43.600;1.480;2024-01-30T01:39:25;10.70;4.90
14924;DHT22;7554;43.600;1.480;2024-01-30T01:41:52;10.80;4.40
14924;DHT22;7554;43.600;1.480;2024-01-30T01:44:19;10.80;5.20
14924;DHT22;7554;43.600;1.480;2024-01-30T01:46:48;10.80;5.10
14924;DHT22;7554;43.600;1.480;2024-01-30T01:49:16;10.80;5.30
14924;DHT22;7554;43.600;1.480;2024-01-30T01:51:43;10.70;5.90
14924;DHT22;7554;43.600;1.480;2024-01-30T01:54:12;10.80;7.50
14924;DHT22;7554;43.600;1.480;2024-01-30T01:56:39;10.80;7.90
14924;DHT22;7554;43.600;1.480;2024-01-30T01:59:08;10.70;7.90
14924;DHT22;7554;43.600;1.480;2024-01-30T02:01:36;10.70;8.90
14924;DHT22;7554;43.600;1.480;2024-01-30T02:04:04;10.80;8.40
14924;DHT22;7554;43.600;1.480;2024-01-30T02:06:32;10.80;7.10
14924;DHT22;7554;43.600;1.480;2024-01-30T02:09:00;10.80;9.40
14924;DHT22;7554;43.600;1.480;2024-01-30T02:11:28;10.80;7.30
14924;DHT22;7554;43.600;1.480;2024-01-30T02:13:56;10.80;7.80
14924;DHT22;7554;43.600;1.480;2024-01-30T02:16:23;10.80;8.10
14924;DHT22;7554;43.600;1.480;2024-01-30T02:18:50;10.90;7.70
14924;DHT22;7554;43.600;1.480;2024-01-30T02:21:19;10.90;7.10
14924;DHT22;7554;43.600;1.480;2024-01-30T02:23:47;10.80;6.80
14924;DHT22;7554;43.600;1.480;2024-01-30T02:26:15;10.80;8.80
14924;DHT22;7554;43.600;1.480;2024-01-30T02:28:43;10.90;25.40
14924;DHT22;7554;43.600;1.480;2024-01-30T02:31:10;10.90;7.70
14924;DHT22;7554;43.600;1.480;2024-01-30T02:33:37;10.80;8.50
14924;DHT22;7554;43.600;1.480;2024-01-30T02:36:05;10.80;9.10
14924;DHT22;7554;43.600;1.480;2024-01-30T02:38:34;10.80;27.00
14924;DHT22;7554;43.600;1.480;2024-01-30T02:41:01;10.80;9.40
14924;DHT22;7554;43.600;1.480;2024-01-30T02:43:28;10.80;11.80
14924;DHT22;7554;43.600;1.480;2024-01-30T02:45:55;10.80;12.10
14924;DHT22;7554;43.600;1.480;2024-01-30T02:48:24;10.80;12.30
14924;DHT22;7554;43.600;1.480;2024-01-30T02:50:51;10.80;12.40
14924;DHT22;7554;43.600;1.480;2024-01-30T02:53:18;10.80;12.60
14924;DHT22;7554;43.600;1.480;2024-01-30T02:55:47;10.80;14.50
14924;DHT22;7554;43.600;1.480;2024-01-30T02:58:14;10.80;14.20
14924;DHT22;7554;43.600;1.480;2024-01-30T03:00:41;10.90;14.20
14924;DHT22;7554;43.600;1.480;2024-01-30T03:03:08;10.80;14.20
14924;DHT22;7554;43.600;1.480;2024-01-30T03:05:36;10.80;16.50
14924;DHT22;7554;43.600;1.480;2024-01-30T03:08:05;10.90;17.30
14924;DHT22;7554;43.600;1.480;2024-01-30T03:10:32;10.80;23.20
14924;DHT22;7554;43.600;1.480;2024-01-30T03:13:00;10.80;18.50
14924;DHT22;7554;43.600;1.480;2024-01-30T03:15:28;10.80;18.40
14924;DHT22;7554;43.600;1.480;2024-01-30T03:17:55;10.80;19.40
14924;DHT22;7554;43.600;1.480;2024-01-30T03:20:23;10.80;18.50
14924;DHT22;7554;43.600;1.480;2024-01-30T03:22:50;10.70;19.40
14924;DHT22;7554;43.600;1.480;2024-01-30T03:25:18;10.80;19.00
14924;DHT22;7554;43.600;1.480;2024-01-30T03:27:45;10.80;19.20
14924;DHT22;7554;43.600;1.480;2024-01-30T03:30:14;10.70;21.10
14924;DHT22;7554;43.600;1.480;2024-01-30T03:32:41;10.70;20.40
14924;DHT22;7554;43.600;1.480;2024-01-30T03:35:09;10.70;23.70
14924;DHT22;7554;43.600;1.480;2024-01-30T03:37:36;10.60;23.80
14924;DHT22;7554;43.600;1.480;2024-01-30T03:40:05;10.60;24.90
14924;DHT22;7554;43.600;1.480;2024-01-30T03:42:32;10.60;25.70
14924;DHT22;7554;43.600;1.480;2024-01-30T03:44:59;10.70;47.80
14924;DHT22;7554;43.600;1.480;2024-01-30T03:47:28;10.60;26.20
14924;DHT22;7554;43.600;1.480;2024-01-30T03:49:55;10.60;26.80
14924;DHT22;7554;43.600;1.480;2024-01-30T03:52:22;10.60;27.00
14924;DHT22;7554;43.600;1.480;2024-01-30T03:54:50;10.70;27.00
14924;DHT22;7554;43.600;1.480;2024-01-30T03:57:17;10.70;26.10
14924;DHT22;7554;43.600;1.480;2024-01-30T03:59:44;10.70;26.70
14924;DHT22;7554;43.600;1.480;2024-01-30T04:02:11;10.60;49.40
14924;DHT22;7554;43.600;1.480;2024-01-30T04:04:40;10.70;27.90
14924;DHT22;7554;43.600;1.480;2024-01-30T04:07:07;10.60;28.00
14924;DHT22;7554;43.600;1.480;2024-01-30T04:09:35;10.50;29.50
14924;DHT22;7554;43.600;1.480;2024-01-30T04:12:02;10.50;30.70
14924;DHT22;7554;43.600;1.480;2024-01-30T04:14:29;10.50;31.80
14924;DHT22;7554;43.600;1.480;2024-01-30T04:16:57;10.50;33.60
14924;DHT22;7554;43.600;1.480;2024-01-30T04:19:24;10.40;34.20
14924;DHT22;7554;43.600;1.480;2024-01-30T04:21:53;10.50;32.20
14924;DHT22;7554;43.600;1.480;2024-01-30T04:24:20;10.50;34.20
14924;DHT22;7554;43.600;1.480;2024-01-30T04:26:47;10.50;35.10
14924;DHT22;7554;43.600;1.480;2024-01-30T04:29:15;10.40;36.30
14924;DHT22;7554;43.600;1.480;2024-01-30T04:31:42;10.40;35.20
14924;DHT22;7554;43.600;1.480;2024-01-30T04:34:09;10.40;37.80
14924;DHT22;7554;43.600;1.480;2024-01-30T04:36:36;10.40;38.70
14924;DHT22;7554;43.600;1.480;2024-01-30T04:39:05;10.40;62.90
14924;DHT22;7554;43.600;1.480;2024-01-30T04:41:34;10.40;38.10
14924;DHT22;7554;43.600;1.480;2024-01-30T04:44:01;10.40;36.10
14924;DHT22;7554;43.600;1.480;2024-01-30T04:46:28;10.40;40.20
14924;DHT22;7554;43.600;1.480;2024-01-30T04:48:56;10.30;41.00
14924;DHT22;7554;43.600;1.480;2024-01-30T04:51:23;10.40;40.30
14924;DHT22;7554;43.600;1.480;2024-01-30T04:53:50;10.40;40.40
14924;DHT22;7554;43.600;1.480;2024-01-30T04:56:19;10.30;39.40
14924;DHT22;7554;43.600;1.480;2024-01-30T04:58:46;10.20;41.20
14924;DHT22;7554;43.600;1.480;2024-01-30T05:01:15;10.30;43.30
14924;DHT22;7554;43.600;1.480;2024-01-30T05:03:43;10.40;38.40
14924;DHT22;7554;43.600;1.480;2024-01-30T05:06:10;10.30;39.70
14924;DHT22;7554;43.600;1.480;2024-01-30T05:08:37;10.20;41.50
14924;DHT22;7554;43.600;1.480;2024-01-30T05:11:05;10.10;54.30
14924;DHT22;7554;43.600;1.480;2024-01-30T05:13:34;10.30;45.10
14924;DHT22;7554;43.600;1.480;2024-01-30T05:16:02;10.40;41.50
14924;DHT22;7554;43.600;1.480;2024-01-30T05:18:30;10.40;40.70
14924;DHT22;7554;43.600;1.480;2024-01-30T05:20:57;10.30;42.90
14924;DHT22;7554;43.600;1.480;2024-01-30T05:23:25;10.30;43.30
14924;DHT22;7554;43.600;1.480;2024-01-30T05:25:52;10.40;41.50
14924;DHT22;7554;43.600;1.480;2024-01-30T05:28:20;10.30;39.40
14924;DHT22;7554;43.600;1.480;2024-01-30T05:30:49;10.30;40.50
14924;DHT22;7554;43.600;1.480;2024-01-30T05:33:16;10.30;44.50
14924;DHT22;7554;43.600;1.480;2024-01-30T05:35:43;10.20;43.40
14924;DHT22;7554;43.600;1.480;2024-01-30T05:38:11;10.10;46.60
14924;DHT22;7554;43.600;1.480;2024-01-30T05:40:39;10.20;45.90
14924;DHT22;7554;43.600;1.480;2024-01-30T05:43:06;10.20;47.20
14924;DHT22;7554;43.600;1.480;2024-01-30T05:45:34;10.20;46.80
14924;DHT22;7554;43.600;1.480;2024-01-30T05:48:04;10.20;56.40
14924;DHT22;7554;43.600;1.480;2024-01-30T05:50:31;10.10;57.80
14924;DHT22;7554;43.600;1.480;2024-01-30T05:52:58;10.00;59.40
14924;DHT22;7554;43.600;1.480;2024-01-30T05:55:26;9.90;59.00
14924;DHT22;7554;43.600;1.480;2024-01-30T05:57:53;10.00;61.40
